createdAt,value
2023-03-06T00:01:07.078Z,35.13
2023-03-06T00:03:34.757Z,22.30
2023-03-06T00:06:02.690Z,20.50
2023-03-06T00:08:30.221Z,18.40
2023-03-06T00:10:58.418Z,19.85
2023-03-06T00:13:30.822Z,30.33
2023-03-06T00:16:03.721Z,28.75
2023-03-06T00:18:31.953Z,34.20
2023-03-06T00:20:59.816Z,33.92
2023-03-06T00:23:34.672Z,32.65
2023-03-06T00:26:12.110Z,32.65
2023-03-06T00:28:42.990Z,27.75
2023-03-06T00:31:11.200Z,26.23
2023-03-06T00:33:44.395Z,30.35
2023-03-06T00:36:15.188Z,28.23
2023-03-06T00:38:50.498Z,34.03
2023-03-06T00:41:25.604Z,37.60
2023-03-06T00:43:53.185Z,39.00
2023-03-06T00:46:20.902Z,29.85
2023-03-06T00:48:52.536Z,26.42
2023-03-06T00:51:25.167Z,30.83
2023-03-06T00:53:58.059Z,29.45
2023-03-06T00:56:26.338Z,33.80
2023-03-06T00:58:57.197Z,43.20
2023-03-06T01:01:26.744Z,40.80
2023-03-06T01:04:08.274Z,31.50
2023-03-06T01:06:42.273Z,36.85
2023-03-06T01:09:13.910Z,40.33
2023-03-06T01:11:41.861Z,64.65
2023-03-06T01:14:19.160Z,73.22
2023-03-06T01:16:50.749Z,74.60
2023-03-06T01:19:18.763Z,67.07
2023-03-06T01:21:49.113Z,76.35
2023-03-06T01:24:18.344Z,76.75
2023-03-06T01:26:47.039Z,60.40
2023-03-06T01:29:23.928Z,59.17
2023-03-06T01:31:57.075Z,148.88
2023-03-06T01:34:25.856Z,51.00
2023-03-06T01:36:59.394Z,56.95
2023-03-06T01:39:28.891Z,56.15
2023-03-06T01:41:56.870Z,58.40
2023-03-06T01:44:24.317Z,59.60
2023-03-06T01:46:52.026Z,59.72
2023-03-06T01:49:22.682Z,56.92
2023-03-06T01:52:10.792Z,60.42
2023-03-06T01:54:51.721Z,57.85
2023-03-06T01:57:31.040Z,53.88
2023-03-06T02:00:17.150Z,56.92
2023-03-06T02:02:55.699Z,56.40
2023-03-06T02:05:23.973Z,55.15
2023-03-06T02:07:52.366Z,55.85
2023-03-06T02:10:38.354Z,46.83
2023-03-06T02:13:11.415Z,46.45
2023-03-06T02:15:56.879Z,46.13
2023-03-06T02:18:43.431Z,40.80
2023-03-06T02:21:26.053Z,37.00
2023-03-06T02:24:27.881Z,66.57
2023-03-06T02:27:03.369Z,42.20
2023-03-06T02:29:33.870Z,50.78
2023-03-06T02:32:04.791Z,52.55
2023-03-06T02:34:38.649Z,55.00
2023-03-06T02:37:11.170Z,58.75
2023-03-06T02:39:55.013Z,58.92
2023-03-06T02:42:29.070Z,56.50
2023-03-06T02:44:59.557Z,52.88
2023-03-06T02:47:27.158Z,50.42
2023-03-06T02:49:55.218Z,46.25
2023-03-06T02:52:22.660Z,44.58
2023-03-06T02:54:50.425Z,37.65
2023-03-06T02:57:17.790Z,37.75
2023-03-06T02:59:46.423Z,33.30
2023-03-06T03:02:13.884Z,31.48
2023-03-06T03:04:47.341Z,32.58
2023-03-06T03:07:19.777Z,30.25
2023-03-06T03:09:48.573Z,29.03
2023-03-06T03:12:16.451Z,30.95
2023-03-06T03:14:44.455Z,29.35
2023-03-06T03:17:17.034Z,29.63
2023-03-06T03:19:47.272Z,29.48
2023-03-06T03:22:14.993Z,29.55
2023-03-06T03:24:44.791Z,30.13
2023-03-06T03:27:12.346Z,29.95
2023-03-06T03:29:41.480Z,28.50
2023-03-06T03:32:09.784Z,29.48
2023-03-06T03:34:37.954Z,32.90
2023-03-06T03:37:06.404Z,29.42
2023-03-06T03:39:34.170Z,27.88
2023-03-06T03:42:05.360Z,30.55
2023-03-06T03:44:33.381Z,26.67
2023-03-06T03:47:02.758Z,29.52
2023-03-06T03:49:31.361Z,29.83
2023-03-06T03:52:00.223Z,29.80
2023-03-06T03:54:31.207Z,29.92
2023-03-06T03:56:58.880Z,36.95
2023-03-06T03:59:32.086Z,41.78
2023-03-06T04:02:10.142Z,38.53
2023-03-06T04:04:47.226Z,37.42
2023-03-06T04:07:15.442Z,38.13
2023-03-06T04:09:43.301Z,33.83
2023-03-06T04:12:10.826Z,33.10
2023-03-06T04:14:38.902Z,33.08
2023-03-06T04:17:07.112Z,33.05
2023-03-06T04:19:35.206Z,32.58
2023-03-06T04:22:07.257Z,30.95
2023-03-06T04:24:41.250Z,31.70
2023-03-06T04:27:09.769Z,31.10
2023-03-06T04:29:37.519Z,32.60
2023-03-06T04:32:05.156Z,38.20
2023-03-06T04:34:32.903Z,43.13
2023-03-06T04:37:01.031Z,33.33
2023-03-06T04:39:28.748Z,37.70
2023-03-06T04:41:56.556Z,32.22
2023-03-06T04:44:25.756Z,32.30
2023-03-06T04:46:53.203Z,29.58
2023-03-06T04:49:21.102Z,31.40
2023-03-06T04:51:48.458Z,28.40
2023-03-06T04:54:17.988Z,29.05
2023-03-06T04:56:46.352Z,29.58
2023-03-06T04:59:14.081Z,33.85
2023-03-06T05:01:41.472Z,27.77
2023-03-06T05:04:23.186Z,24.75
2023-03-06T05:06:51.806Z,25.95
2023-03-06T05:09:19.500Z,37.13
2023-03-06T05:11:46.906Z,23.25
2023-03-06T05:14:14.596Z,23.58
2023-03-06T05:16:42.060Z,22.33
2023-03-06T05:19:09.797Z,22.20
2023-03-06T05:21:37.132Z,22.67
2023-03-06T05:24:05.187Z,22.10
2023-03-06T05:26:32.661Z,22.25
2023-03-06T05:29:01.027Z,23.30
2023-03-06T05:31:28.463Z,22.63
2023-03-06T05:33:58.623Z,25.55
2023-03-06T05:36:42.408Z,27.10
2023-03-06T05:39:24.798Z,29.15
2023-03-06T05:42:02.297Z,27.17
2023-03-06T05:44:42.762Z,30.77
2023-03-06T05:47:12.232Z,27.45
2023-03-06T05:49:40.427Z,24.85
2023-03-06T05:52:10.243Z,24.58
2023-03-06T05:54:38.517Z,25.58
2023-03-06T05:57:06.590Z,26.10
2023-03-06T05:59:34.406Z,24.00
2023-03-06T06:02:14.978Z,21.92
2023-03-06T06:05:13.155Z,28.52
2023-03-06T06:07:43.736Z,23.05
2023-03-06T06:10:16.306Z,23.17
2023-03-06T06:12:49.234Z,22.33
2023-03-06T06:17:54.718Z,20.20
2023-03-06T06:20:23.722Z,20.00
2023-03-06T06:22:51.671Z,21.08
2023-03-06T06:25:20.507Z,18.85
2023-03-06T06:27:47.947Z,19.40
2023-03-06T06:30:16.012Z,20.48
2023-03-06T06:32:43.437Z,18.77
2023-03-06T06:35:11.097Z,18.65
2023-03-06T06:37:38.490Z,18.83
2023-03-06T06:40:09.354Z,19.65
2023-03-06T06:42:40.137Z,21.08
2023-03-06T06:45:11.653Z,21.63
2023-03-06T06:47:43.651Z,22.80
2023-03-06T06:50:13.453Z,20.58
2023-03-06T06:52:40.989Z,23.27
2023-03-06T06:55:09.934Z,21.50
2023-03-06T06:57:37.465Z,18.02
2023-03-06T07:00:09.337Z,18.50
2023-03-06T07:02:37.016Z,18.55
2023-03-06T07:05:05.717Z,18.75
2023-03-06T07:07:38.150Z,20.75
2023-03-06T07:10:08.859Z,19.50
2023-03-06T07:12:37.711Z,20.13
2023-03-06T07:15:07.089Z,19.60
2023-03-06T07:17:34.619Z,23.10
2023-03-06T07:20:02.549Z,25.90
2023-03-06T07:22:49.897Z,23.75
2023-03-06T07:25:18.946Z,22.02
2023-03-06T07:27:52.778Z,21.00
2023-03-06T07:30:25.790Z,17.70
2023-03-06T07:32:58.300Z,17.77
2023-03-06T07:35:26.594Z,19.55
2023-03-06T07:37:54.329Z,15.88
2023-03-06T07:40:23.597Z,15.93
2023-03-06T07:42:54.239Z,17.05
2023-03-06T07:45:26.714Z,15.60
2023-03-06T07:47:54.651Z,16.10
2023-03-06T07:50:22.528Z,15.73
2023-03-06T07:52:50.602Z,17.58
2023-03-06T07:55:19.571Z,17.05
2023-03-06T07:57:49.488Z,18.55
2023-03-06T08:00:18.547Z,18.38
2023-03-06T08:02:46.291Z,21.63
2023-03-06T08:05:17.216Z,20.60
2023-03-06T08:07:45.780Z,20.63
2023-03-06T08:10:16.080Z,17.95
2023-03-06T08:12:43.569Z,16.90
2023-03-06T08:15:12.538Z,14.95
2023-03-06T08:17:40.389Z,17.27
2023-03-06T08:20:12.882Z,15.98
2023-03-06T08:22:40.725Z,15.00
2023-03-06T08:25:09.379Z,13.40
2023-03-06T08:27:36.881Z,13.75
2023-03-06T08:30:05.771Z,16.23
2023-03-06T08:32:38.665Z,13.60
2023-03-06T08:35:07.063Z,12.25
2023-03-06T08:37:34.668Z,12.82
2023-03-06T08:40:04.929Z,14.15
2023-03-06T08:42:34.758Z,12.65
2023-03-06T08:45:02.734Z,13.05
2023-03-06T08:47:30.249Z,11.80
2023-03-06T08:50:00.595Z,12.50
2023-03-06T08:52:29.145Z,13.50
2023-03-06T08:54:58.203Z,13.75
2023-03-06T08:57:25.650Z,15.13
2023-03-06T08:59:53.396Z,14.65
2023-03-06T09:02:21.062Z,12.73
2023-03-06T09:04:49.282Z,13.98
2023-03-06T09:07:16.865Z,14.85
2023-03-06T09:09:44.660Z,13.55
2023-03-06T09:12:12.319Z,13.30
2023-03-06T09:14:40.026Z,12.05
2023-03-06T09:17:08.193Z,13.90
2023-03-06T09:19:36.127Z,11.75
2023-03-06T09:22:04.660Z,12.75
2023-03-06T09:24:32.881Z,12.88
2023-03-06T09:27:00.491Z,12.50
2023-03-06T09:29:28.992Z,11.82
2023-03-06T09:31:57.688Z,11.35
2023-03-06T09:34:27.819Z,13.57
2023-03-06T09:36:57.124Z,12.88
2023-03-06T09:39:26.407Z,13.00
2023-03-06T09:41:54.668Z,15.77
2023-03-06T09:44:26.386Z,13.77
2023-03-06T09:47:04.241Z,17.30
2023-03-06T09:49:50.437Z,16.88
2023-03-06T09:52:36.155Z,14.98
2023-03-06T09:55:12.776Z,14.73
2023-03-06T09:57:52.377Z,13.20
2023-03-06T10:00:43.321Z,13.38
2023-03-06T10:03:29.020Z,13.95
2023-03-06T10:06:09.201Z,13.35
2023-03-06T10:08:52.712Z,13.88
2023-03-06T10:11:28.274Z,13.00
2023-03-06T10:14:14.356Z,21.13
2023-03-06T10:16:42.436Z,38.20
2023-03-06T10:19:17.422Z,16.30
2023-03-06T10:22:04.990Z,16.45
2023-03-06T10:24:47.852Z,20.13
2023-03-06T10:27:38.082Z,21.58
2023-03-06T10:30:17.666Z,19.88
2023-03-06T10:32:59.637Z,29.95
2023-03-06T10:35:33.580Z,17.88
2023-03-06T10:38:20.448Z,32.22
2023-03-06T10:41:15.212Z,44.85
2023-03-06T10:43:48.076Z,22.55
2023-03-06T10:46:31.780Z,47.70
2023-03-06T10:49:06.414Z,18.37
2023-03-06T10:51:35.920Z,14.48
2023-03-06T10:54:19.466Z,16.15
2023-03-06T10:56:47.885Z,19.48
2023-03-06T10:59:25.553Z,23.20
2023-03-06T11:01:56.778Z,28.13
2023-03-06T11:04:30.565Z,22.17
2023-03-06T11:07:23.036Z,28.55
2023-03-06T11:09:57.227Z,27.95
2023-03-06T11:12:38.282Z,23.15
2023-03-06T11:15:21.514Z,19.33
2023-03-06T11:17:59.860Z,24.52
2023-03-06T11:20:53.000Z,32.33
2023-03-06T11:23:38.831Z,64.60
2023-03-06T11:26:20.412Z,33.85
2023-03-06T11:29:00.481Z,25.02
2023-03-06T11:32:06.020Z,41.55
2023-03-06T11:34:51.418Z,16.38
2023-03-06T11:37:51.388Z,23.00
2023-03-06T11:40:41.025Z,16.98
2023-03-06T11:43:53.944Z,17.30
2023-03-06T11:46:47.509Z,17.48
2023-03-06T11:49:39.840Z,17.58
2023-03-06T11:52:19.947Z,17.50
2023-03-06T11:55:03.704Z,20.95
2023-03-06T11:57:47.596Z,19.20
2023-03-06T12:00:22.156Z,12.95
2023-03-06T12:04:06.071Z,21.42
2023-03-06T12:07:02.106Z,26.90
2023-03-06T12:09:51.423Z,43.90
2023-03-06T12:12:48.657Z,17.20
2023-03-06T12:15:30.884Z,16.77
2023-03-06T12:18:23.179Z,14.90
2023-03-06T12:21:07.337Z,16.88
2023-03-06T12:23:38.189Z,12.45
2023-03-06T12:26:11.702Z,17.05
2023-03-06T12:29:02.001Z,18.85
2023-03-06T12:31:52.316Z,42.95
2023-03-06T12:34:49.454Z,13.93
2023-03-06T12:37:31.689Z,12.77
2023-03-06T12:40:41.717Z,25.55
2023-03-06T12:43:40.682Z,12.25
2023-03-06T12:46:17.053Z,13.02
2023-03-06T12:49:06.532Z,20.60
2023-03-06T12:51:35.122Z,23.40
2023-03-06T12:54:05.642Z,19.95
2023-03-06T12:56:41.850Z,13.07
2023-03-06T12:59:38.994Z,10.80
2023-03-06T13:02:30.720Z,10.07
2023-03-06T13:05:20.000Z,10.93
2023-03-06T13:08:12.864Z,12.10
2023-03-06T13:10:42.485Z,17.73
2023-03-06T13:13:33.674Z,15.20
2023-03-06T13:16:16.394Z,23.08
2023-03-06T13:18:44.320Z,10.43
2023-03-06T13:21:53.444Z,11.70
2023-03-06T13:24:23.251Z,12.15
2023-03-06T13:27:06.345Z,13.70
2023-03-06T13:29:37.112Z,12.52
2023-03-06T13:32:04.901Z,16.55
2023-03-06T13:34:32.586Z,15.38
2023-03-06T13:37:23.341Z,9.80
2023-03-06T13:39:59.894Z,16.45
2023-03-06T13:42:56.566Z,11.60
2023-03-06T13:45:42.087Z,11.18
2023-03-06T13:48:43.756Z,9.50
2023-03-06T13:51:24.284Z,10.30
2023-03-06T13:54:13.584Z,11.55
2023-03-06T13:57:13.222Z,10.50
2023-03-06T14:00:16.727Z,9.73
2023-03-06T14:03:42.529Z,9.93
2023-03-06T14:06:50.239Z,12.98
2023-03-06T14:09:45.875Z,13.77
2023-03-06T14:15:22.436Z,13.20
2023-03-06T14:18:02.212Z,10.48
2023-03-06T14:20:39.306Z,12.07
2023-03-06T14:23:23.264Z,19.25
2023-03-06T14:26:19.366Z,21.53
2023-03-06T14:29:00.572Z,23.05
2023-03-06T14:31:41.400Z,30.65
2023-03-06T14:34:20.697Z,22.75
2023-03-06T14:36:51.582Z,31.65
2023-03-06T14:39:32.751Z,12.85
2023-03-06T14:42:29.227Z,23.85
2023-03-06T14:45:16.518Z,12.40
2023-03-06T14:47:50.064Z,13.20
2023-03-06T14:50:21.896Z,14.63
2023-03-06T14:52:56.553Z,13.55
2023-03-06T14:55:27.077Z,12.52
2023-03-06T14:58:00.012Z,14.85
2023-03-06T15:00:35.773Z,14.85
2023-03-06T15:03:08.930Z,16.42
2023-03-06T15:05:36.710Z,16.55
2023-03-06T15:08:08.310Z,16.95
2023-03-06T15:10:38.957Z,17.02
2023-03-06T15:13:25.143Z,13.90
2023-03-06T15:16:06.822Z,13.38
2023-03-06T15:18:35.605Z,10.73
2023-03-06T15:21:19.479Z,11.23
2023-03-06T15:23:49.336Z,12.17
2023-03-06T15:26:19.568Z,12.80
2023-03-06T15:29:09.486Z,14.48
2023-03-06T15:31:45.488Z,13.93
2023-03-06T15:34:24.519Z,17.15
2023-03-06T15:37:21.111Z,15.23
2023-03-06T15:40:11.541Z,19.42
2023-03-06T15:42:43.229Z,17.40
2023-03-06T15:45:26.621Z,15.77
2023-03-06T15:48:04.145Z,16.58
2023-03-06T15:50:59.902Z,14.05
2023-03-06T15:53:45.983Z,19.70
2023-03-06T15:56:33.949Z,15.38
2023-03-06T15:59:03.561Z,16.20
2023-03-06T16:01:35.282Z,16.33
2023-03-06T16:04:08.183Z,16.40
2023-03-06T16:06:41.276Z,17.08
2023-03-06T16:09:13.026Z,16.10
2023-03-06T16:11:47.815Z,16.40
2023-03-06T16:14:24.640Z,24.33
2023-03-06T16:16:57.613Z,26.73
2023-03-06T16:19:29.316Z,25.88
2023-03-06T16:22:00.783Z,23.40
2023-03-06T16:24:31.598Z,28.40
2023-03-06T16:27:01.717Z,30.25
2023-03-06T16:29:36.088Z,29.98
2023-03-06T16:32:06.936Z,38.72
2023-03-06T16:34:38.038Z,47.00
2023-03-06T16:37:11.604Z,33.88
2023-03-06T16:39:41.013Z,41.38
2023-03-06T16:42:16.251Z,34.30
2023-03-06T16:44:45.384Z,36.05
2023-03-06T16:47:20.556Z,49.58
2023-03-06T16:49:50.168Z,51.43
2023-03-06T16:52:25.616Z,123.25
2023-03-06T16:54:57.781Z,78.70
2023-03-06T16:57:37.010Z,52.35
2023-03-06T17:00:11.898Z,47.67
2023-03-06T17:02:44.190Z,44.78
2023-03-06T17:05:13.444Z,49.20
2023-03-06T17:07:41.542Z,57.63
2023-03-06T17:10:13.758Z,53.53
2023-03-06T17:12:59.990Z,74.63
2023-03-06T17:15:44.633Z,53.38
2023-03-06T17:18:44.309Z,53.08
2023-03-06T17:21:49.342Z,38.40
2023-03-06T17:24:20.747Z,37.42
2023-03-06T17:26:49.489Z,39.40
2023-03-06T17:32:10.940Z,37.22
2023-03-06T17:34:40.982Z,42.63
2023-03-06T17:41:47.559Z,45.53
2023-03-06T17:45:11.923Z,41.63
2023-03-06T17:51:08.814Z,41.08
2023-03-06T17:54:08.197Z,44.05
2023-03-06T17:56:51.038Z,40.28
2023-03-06T17:59:26.281Z,51.45
2023-03-06T18:02:09.470Z,67.53
2023-03-06T18:04:41.804Z,80.95
2023-03-06T18:07:23.024Z,111.25
2023-03-06T18:09:56.921Z,79.30
2023-03-06T18:13:10.103Z,63.17
2023-03-06T18:18:14.269Z,48.20
2023-03-06T18:20:47.288Z,58.22
2023-03-06T18:23:17.340Z,50.85
2023-03-06T18:25:45.119Z,42.80
2023-03-06T18:28:13.001Z,54.58
2023-03-06T18:30:42.496Z,75.03
2023-03-06T18:33:12.845Z,50.13
2023-03-06T18:36:26.025Z,48.83
2023-03-06T18:39:08.198Z,48.22
2023-03-06T18:41:39.880Z,44.20
2023-03-06T18:44:33.784Z,45.08
2023-03-06T18:47:41.414Z,49.75
2023-03-06T18:54:59.196Z,58.00
2023-03-06T18:58:31.484Z,64.28
2023-03-06T19:09:45.558Z,56.03
2023-03-06T19:13:39.000Z,44.60
2023-03-06T19:24:51.464Z,45.20
2023-03-06T19:28:34.929Z,44.15
2023-03-06T19:31:27.392Z,64.65
2023-03-06T19:34:12.282Z,72.93
2023-03-06T19:38:20.647Z,37.08
2023-03-06T19:40:58.347Z,38.10
2023-03-06T19:43:30.335Z,30.90
2023-03-06T19:46:01.321Z,26.55
2023-03-06T19:48:37.917Z,31.25
2023-03-06T19:51:07.711Z,31.33
2023-03-06T19:53:39.052Z,21.65
2023-03-06T19:56:19.655Z,25.27
2023-03-06T19:58:47.566Z,24.45
2023-03-06T20:01:19.554Z,30.33
2023-03-06T20:03:48.088Z,28.20
2023-03-06T20:06:20.437Z,31.00
2023-03-06T20:08:50.862Z,25.33
2023-03-06T20:11:20.284Z,24.60
2023-03-06T20:13:49.166Z,22.38
2023-03-06T20:16:21.196Z,17.40
2023-03-06T20:18:50.048Z,15.82
2023-03-06T20:21:18.224Z,17.83
2023-03-06T20:23:45.709Z,17.52
2023-03-06T20:26:15.396Z,18.15
2023-03-06T20:28:43.106Z,19.13
2023-03-06T20:31:16.542Z,25.50
2023-03-06T20:33:46.872Z,21.45
2023-03-06T20:36:22.842Z,20.85
2023-03-06T20:38:55.076Z,18.63
2023-03-06T20:41:25.886Z,19.80
2023-03-06T20:43:56.103Z,17.05
2023-03-06T20:46:26.058Z,16.85
2023-03-06T20:48:54.389Z,18.50
2023-03-06T20:51:28.854Z,15.30
2023-03-06T20:54:01.631Z,26.15
2023-03-06T20:56:35.872Z,18.98
2023-03-06T20:59:06.533Z,21.55
2023-03-06T21:01:39.249Z,28.83
2023-03-06T21:04:08.788Z,23.42
2023-03-06T21:06:37.853Z,35.55
2023-03-06T21:09:09.859Z,19.52
2023-03-06T21:11:39.001Z,27.48
2023-03-06T21:14:14.497Z,21.83
2023-03-06T21:16:47.963Z,21.40
2023-03-06T21:19:43.010Z,18.55
2023-03-06T21:22:21.288Z,17.08
2023-03-06T21:25:19.134Z,22.23
2023-03-06T21:27:51.259Z,18.35
2023-03-06T21:30:21.619Z,23.65
2023-03-06T21:33:00.233Z,17.20
2023-03-06T21:35:47.169Z,18.90
2023-03-06T21:38:32.271Z,17.23
2023-03-06T21:41:26.991Z,18.67
2023-03-06T21:44:07.455Z,18.23
2023-03-06T21:47:06.449Z,17.92
2023-03-06T21:49:45.886Z,31.48
2023-03-06T21:52:17.603Z,23.42
2023-03-06T21:54:51.000Z,19.80
2023-03-06T21:57:24.989Z,20.50
2023-03-06T22:00:10.477Z,19.95
2023-03-06T22:02:58.637Z,20.42
2023-03-06T22:05:26.812Z,18.40
2023-03-06T22:08:00.215Z,20.33
2023-03-06T22:10:35.460Z,20.98
2023-03-06T22:13:04.024Z,20.17
2023-03-06T22:15:37.953Z,21.02
2023-03-06T22:18:20.035Z,20.35
2023-03-06T22:21:31.182Z,30.23
2023-03-06T22:24:10.774Z,25.35
2023-03-06T22:26:49.320Z,31.23
2023-03-06T22:29:20.561Z,35.42
2023-03-06T22:32:31.356Z,38.08
2023-03-06T22:35:03.697Z,36.75
2023-03-06T22:37:32.240Z,33.55
2023-03-06T22:40:00.427Z,35.45
2023-03-06T22:42:37.090Z,36.53
2023-03-06T22:45:09.063Z,37.10
2023-03-06T22:47:39.241Z,36.00
2023-03-06T22:50:11.033Z,37.45
2023-03-06T22:54:06.255Z,35.45
2023-03-06T22:57:00.324Z,35.28
2023-03-06T23:02:47.243Z,38.67
2023-03-06T23:05:21.724Z,41.13
2023-03-06T23:11:44.669Z,39.22
2023-03-06T23:15:01.102Z,38.17
2023-03-06T23:18:40.989Z,33.47
2023-03-06T23:21:32.878Z,33.70
2023-03-06T23:24:21.194Z,34.55
2023-03-06T23:26:49.378Z,31.08
2023-03-06T23:29:20.514Z,32.65
2023-03-06T23:31:51.558Z,32.05
2023-03-06T23:34:18.940Z,31.40
2023-03-06T23:36:50.601Z,31.90
2023-03-06T23:40:10.126Z,33.83
2023-03-06T23:47:08.730Z,33.55
